Language: 


Des rapports , des résumés tant et plus, au choix de chacun....


Données Historiques de Météogheer
Journalier Rapport pour Mars 12, 2017 Unitée:  Les deux    Impériale   Métrique
Suivant Jour »
Journalier Hebdomadaire Mensuel Annuel Sur mesure
  Max: Min: Moyenne:
Température: 63 °F /  17.2 °C 38.5 °F /  3.6 °C 48.7 °F /  9.3 °C
Point de rosée: 46 °F /  7.8 °C 35.8 °F /  2.1 °C 40.3 °F /  4.6 °C
Humidité: 95% 47% 74%
Vent: 7.6mph /  12.2km/h - 2.1mph /  3.4km/h
Rafales: 10.1mph /  16.3km/h - -
Vent- - SSW
Pression: 30 in /  1016.8 hPa 29.9 in /  1011.1 hPa -
Pluie: 0 in /  0.0 mm    
Historical Graphs
 
 
Données tabulaires pour Mars 12, 2017
Heure Température Point de rosée Pression Vent Vent Rafales Humidité Pluie Taux (Horaire) Conditions
00:02 43.5 °F /  6.4 °C 37.8 °F /  3.2 °C 30in /  1015.1hPa NNE 2.9mph /  4.7km/h 3.1mph /  5.0km/h 80% 0in /  0.0mm
00:07 43.5 °F /  6.4 °C 37.8 °F /  3.2 °C 30in /  1015.1hPa North 2.5mph /  4.0km/h 3.1mph /  5.0km/h 80% 0in /  0.0mm
00:12 43.5 °F /  6.4 °C 37.8 °F /  3.2 °C 30in /  1015.1hPa North 3.1mph /  5.0km/h 3.6mph /  5.8km/h 80% 0in /  0.0mm
00:17 43.5 °F /  6.4 °C 38.1 °F /  3.4 °C 30in /  1015.1hPa North 2.7mph /  4.3km/h 3.6mph /  5.8km/h 81% 0in /  0.0mm
00:22 43.5 °F /  6.4 °C 38.1 °F /  3.4 °C 30in /  1015.1hPa NNE 2.9mph /  4.7km/h 3.4mph /  5.5km/h 81% 0in /  0.0mm
00:27 43.5 °F /  6.4 °C 37.9 °F /  3.3 °C 30in /  1015.1hPa NNE 1.3mph /  2.1km/h 3.4mph /  5.5km/h 81% 0in /  0.0mm
00:32 43.5 °F /  6.4 °C 37.9 °F /  3.3 °C 30in /  1015.1hPa NNE 2.2mph /  3.5km/h 2.9mph /  4.7km/h 81% 0in /  0.0mm
00:37 43.3 °F /  6.3 °C 37.9 °F /  3.3 °C 30in /  1015.1hPa Calm   2.9mph /  4.7km/h 81% 0in /  0.0mm
00:42 43.2 °F /  6.2 °C 37.8 °F /  3.2 °C 30in /  1015.1hPa NNE 3.1mph /  5.0km/h 3.1mph /  5.0km/h 81% 0in /  0.0mm
00:47 43.2 °F /  6.2 °C 37.8 °F /  3.2 °C 30in /  1015.1hPa North 2.5mph /  4.0km/h 3.4mph /  5.5km/h 81% 0in /  0.0mm
00:52 43.2 °F /  6.2 °C 37.8 °F /  3.2 °C 30in /  1015.1hPa North 2.9mph /  4.7km/h 3.6mph /  5.8km/h 81% 0in /  0.0mm
00:57 43.2 °F /  6.2 °C 37.9 °F /  3.3 °C 30in /  1015.1hPa NNE 2.7mph /  4.3km/h 3.6mph /  5.8km/h 82% 0in /  0.0mm
01:02 43.2 °F /  6.2 °C 37.8 °F /  3.2 °C 30in /  1015.1hPa North 3.4mph /  5.5km/h 3.8mph /  6.1km/h 81% 0in /  0.0mm
01:07 43.2 °F /  6.2 °C 37.8 °F /  3.2 °C 30in /  1015.1hPa North 2.9mph /  4.7km/h 3.8mph /  6.1km/h 81% 0in /  0.0mm
01:12 43 °F /  6.1 °C 37.6 °F /  3.1 °C 30in /  1015.1hPa North 2.2mph /  3.5km/h 3.4mph /  5.5km/h 81% 0in /  0.0mm
01:17 43 °F /  6.1 °C 37.8 °F /  3.2 °C 30in /  1015.1hPa North 3.4mph /  5.5km/h 3.8mph /  6.1km/h 82% 0in /  0.0mm
01:22 43 °F /  6.1 °C 37.8 °F /  3.2 °C 30in /  1015.1hPa NNE 3.1mph /  5.0km/h 4mph /  6.4km/h 82% 0in /  0.0mm
01:28 42.8 °F /  6.0 °C 37.6 °F /  3.1 °C 30in /  1015.1hPa North 2.2mph /  3.5km/h 4mph /  6.4km/h 82% 0in /  0.0mm
01:33 42.6 °F /  5.9 °C 37.6 °F /  3.1 °C 30in /  1015.1hPa NNE 2.7mph /  4.3km/h 3.4mph /  5.5km/h 82% 0in /  0.0mm
01:38 42.6 °F /  5.9 °C 37.6 °F /  3.1 °C 30in /  1015.1hPa North 3.6mph /  5.8km/h 3.8mph /  6.1km/h 82% 0in /  0.0mm
01:43 42.4 °F /  5.8 °C 37.6 °F /  3.1 °C 30in /  1015.1hPa North 2.2mph /  3.5km/h 3.8mph /  6.1km/h 83% 0in /  0.0mm
01:48 42.3 °F /  5.7 °C 37.4 °F /  3.0 °C 30in /  1015.1hPa NNE 3.1mph /  5.0km/h 3.8mph /  6.1km/h 83% 0in /  0.0mm
01:53 42.3 °F /  5.7 °C 37.4 °F /  3.0 °C 29.9in /  1014.1hPa North 3.6mph /  5.8km/h 3.6mph /  5.8km/h 83% 0in /  0.0mm
01:58 42.1 °F /  5.6 °C 37.2 °F /  2.9 °C 29.9in /  1014.1hPa NNE 2.7mph /  4.3km/h 3.6mph /  5.8km/h 83% 0in /  0.0mm
02:03 41.7 °F /  5.4 °C 36.9 °F /  2.7 °C 29.9in /  1014.1hPa NNE 1.6mph /  2.6km/h 2.9mph /  4.7km/h 83% 0in /  0.0mm
02:08 41.5 °F /  5.3 °C 36.7 °F /  2.6 °C 29.9in /  1014.1hPa NE 2.5mph /  4.0km/h 2.9mph /  4.7km/h 83% 0in /  0.0mm
02:13 41.2 °F /  5.1 °C 36.3 °F /  2.4 °C 29.9in /  1014.1hPa NE 2.5mph /  4.0km/h 2.9mph /  4.7km/h 83% 0in /  0.0mm
02:18 41 °F /  5.0 °C 36.5 °F /  2.5 °C 29.9in /  1014.1hPa NNE 2mph /  3.2km/h 2.9mph /  4.7km/h 84% 0in /  0.0mm
02:23 41 °F /  5.0 °C 36.5 °F /  2.5 °C 29.9in /  1014.1hPa NNE 2.5mph /  4.0km/h 2.9mph /  4.7km/h 84% 0in /  0.0mm
02:28 40.8 °F /  4.9 °C 36.3 °F /  2.4 °C 29.9in /  1014.1hPa Calm   2.7mph /  4.3km/h 84% 0in /  0.0mm
02:33 41 °F /  5.0 °C 36.9 °F /  2.7 °C 29.9in /  1014.1hPa North 2.5mph /  4.0km/h 2.7mph /  4.3km/h 85% 0in /  0.0mm
02:38 41 °F /  5.0 °C 37 °F /  2.8 °C 29.9in /  1014.1hPa North 3.1mph /  5.0km/h 3.4mph /  5.5km/h 86% 0in /  0.0mm
02:43 41.2 °F /  5.1 °C 37.2 °F /  2.9 °C 29.9in /  1014.1hPa North 4mph /  6.4km/h 4.3mph /  6.9km/h 86% 0in /  0.0mm
02:48 41.4 °F /  5.2 °C 37.6 °F /  3.1 °C 29.9in /  1014.1hPa NNE 3.6mph /  5.8km/h 4.3mph /  6.9km/h 86% 0in /  0.0mm
02:53 41.4 °F /  5.2 °C 37.6 °F /  3.1 °C 29.9in /  1014.1hPa NNE 3.4mph /  5.5km/h 4mph /  6.4km/h 86% 0in /  0.0mm
02:58 41.4 °F /  5.2 °C 37.6 °F /  3.1 °C 29.9in /  1014.1hPa NNE 2.7mph /  4.3km/h 4mph /  6.4km/h 86% 0in /  0.0mm
03:03 41.2 °F /  5.1 °C 37.2 °F /  2.9 °C 29.9in /  1014.1hPa North 3.4mph /  5.5km/h 3.8mph /  6.1km/h 86% 0in /  0.0mm
03:08 41.2 °F /  5.1 °C 37.2 °F /  2.9 °C 29.9in /  1013.1hPa NE 2.5mph /  4.0km/h 4mph /  6.4km/h 86% 0in /  0.0mm
03:13 41 °F /  5.0 °C 37 °F /  2.8 °C 29.9in /  1013.1hPa North 2.9mph /  4.7km/h 4mph /  6.4km/h 86% 0in /  0.0mm
03:18 41 °F /  5.0 °C 37 °F /  2.8 °C 29.9in /  1013.1hPa Calm   3.4mph /  5.5km/h 86% 0in /  0.0mm
03:23 41 °F /  5.0 °C 37.4 °F /  3.0 °C 29.9in /  1013.1hPa North 2.9mph /  4.7km/h 3.4mph /  5.5km/h 87% 0in /  0.0mm
03:28 41 °F /  5.0 °C 37.4 °F /  3.0 °C 29.9in /  1013.1hPa NNE 2.5mph /  4.0km/h 3.6mph /  5.8km/h 87% 0in /  0.0mm
03:33 40.8 °F /  4.9 °C 37.2 °F /  2.9 °C 29.9in /  1013.1hPa NNE 2.5mph /  4.0km/h 3.6mph /  5.8km/h 87% 0in /  0.0mm
03:38 40.8 °F /  4.9 °C 37.2 °F /  2.9 °C 29.9in /  1013.1hPa NE 2.5mph /  4.0km/h 3.6mph /  5.8km/h 87% 0in /  0.0mm
03:43 40.8 °F /  4.9 °C 37.2 °F /  2.9 °C 29.9in /  1013.1hPa North 2.9mph /  4.7km/h 3.8mph /  6.1km/h 87% 0in /  0.0mm
03:48 40.8 °F /  4.9 °C 37.2 °F /  2.9 °C 29.9in /  1013.1hPa NNE 2.9mph /  4.7km/h 3.8mph /  6.1km/h 87% 0in /  0.0mm
03:53 41 °F /  5.0 °C 37.8 °F /  3.2 °C 29.9in /  1013.1hPa NNE 2.7mph /  4.3km/h 3.6mph /  5.8km/h 88% 0in /  0.0mm
03:58 41 °F /  5.0 °C 37.8 °F /  3.2 °C 29.9in /  1013.1hPa NE 3.4mph /  5.5km/h 3.6mph /  5.8km/h 88% 0in /  0.0mm
04:03 41 °F /  5.0 °C 37.8 °F /  3.2 °C 29.9in /  1013.1hPa NNE 2.9mph /  4.7km/h 3.6mph /  5.8km/h 88% 0in /  0.0mm
04:08 41 °F /  5.0 °C 37.8 °F /  3.2 °C 29.9in /  1013.1hPa NNE 2.9mph /  4.7km/h 3.6mph /  5.8km/h 88% 0in /  0.0mm
04:13 41.2 °F /  5.1 °C 38.1 °F /  3.4 °C 29.9in /  1013.1hPa North 2.9mph /  4.7km/h 3.4mph /  5.5km/h 89% 0in /  0.0mm
04:18 41.4 °F /  5.2 °C 38.5 °F /  3.6 °C 29.9in /  1013.1hPa NNE 3.8mph /  6.1km/h 4mph /  6.4km/h 89% 0in /  0.0mm
04:23 41.2 °F /  5.1 °C 37.9 °F /  3.3 °C 29.9in /  1013.1hPa NNE 2.9mph /  4.7km/h 4mph /  6.4km/h 88% 0in /  0.0mm
04:28 40.8 °F /  4.9 °C 37.6 °F /  3.1 °C 29.9in /  1013.1hPa NNE 2.7mph /  4.3km/h 4mph /  6.4km/h 88% 0in /  0.0mm
04:33 40.8 °F /  4.9 °C 37.6 °F /  3.1 °C 29.9in /  1013.1hPa NE 3.4mph /  5.5km/h 3.6mph /  5.8km/h 88% 0in /  0.0mm
04:38 40.6 °F /  4.8 °C 37.4 °F /  3.0 °C 29.9in /  1013.1hPa NNE 2.7mph /  4.3km/h 3.6mph /  5.8km/h 88% 0in /  0.0mm
04:43 40.6 °F /  4.8 °C 37.8 °F /  3.2 °C 29.9in /  1013.1hPa NNE 2.7mph /  4.3km/h 3.4mph /  5.5km/h 89% 0in /  0.0mm
04:48 40.6 °F /  4.8 °C 37.8 °F /  3.2 °C 29.9in /  1013.1hPa NNE 3.1mph /  5.0km/h 3.6mph /  5.8km/h 89% 0in /  0.0mm
04:53 40.6 °F /  4.8 °C 37.8 °F /  3.2 °C 29.9in /  1013.1hPa NNE 2.5mph /  4.0km/h 3.6mph /  5.8km/h 89% 0in /  0.0mm
04:59 40.5 °F /  4.7 °C 37.6 °F /  3.1 °C 29.9in /  1013.1hPa NNE 2mph /  3.2km/h 3.4mph /  5.5km/h 89% 0in /  0.0mm
05:04 40.5 °F /  4.7 °C 37.6 °F /  3.1 °C 29.9in /  1013.1hPa NNE 1.6mph /  2.6km/h 3.1mph /  5.0km/h 89% 0in /  0.0mm
05:09 40.5 °F /  4.7 °C 37.6 °F /  3.1 °C 29.9in /  1013.1hPa NNE 3.1mph /  5.0km/h 3.1mph /  5.0km/h 89% 0in /  0.0mm
05:14 40.5 °F /  4.7 °C 37.8 °F /  3.2 °C 29.9in /  1013.1hPa NNE 2mph /  3.2km/h 3.1mph /  5.0km/h 90% 0in /  0.0mm
05:19 40.5 °F /  4.7 °C 37.8 °F /  3.2 °C 29.9in /  1013.1hPa North 2.7mph /  4.3km/h 3.1mph /  5.0km/h 90% 0in /  0.0mm
05:24 40.5 °F /  4.7 °C 37.8 °F /  3.2 °C 29.9in /  1013.1hPa North 2.5mph /  4.0km/h 3.4mph /  5.5km/h 90% 0in /  0.0mm
05:29 40.5 °F /  4.7 °C 37.8 °F /  3.2 °C 29.9in /  1013.1hPa North 2mph /  3.2km/h 3.4mph /  5.5km/h 90% 0in /  0.0mm
05:34 40.5 °F /  4.7 °C 37.8 °F /  3.2 °C 29.9in /  1013.1hPa North 2.7mph /  4.3km/h 3.8mph /  6.1km/h 90% 0in /  0.0mm
05:39 40.5 °F /  4.7 °C 37.8 °F /  3.2 °C 29.9in /  1012.1hPa NNE 2.7mph /  4.3km/h 3.8mph /  6.1km/h 90% 0in /  0.0mm
05:44 40.5 °F /  4.7 °C 37.8 °F /  3.2 °C 29.9in /  1012.1hPa NNE 3.1mph /  5.0km/h 3.8mph /  6.1km/h 90% 0in /  0.0mm
05:49 40.5 °F /  4.7 °C 37.8 °F /  3.2 °C 29.9in /  1012.1hPa NNE 3.6mph /  5.8km/h 3.8mph /  6.1km/h 90% 0in /  0.0mm
05:54 40.3 °F /  4.6 °C 37.6 °F /  3.1 °C 29.9in /  1012.1hPa North 2.5mph /  4.0km/h 3.8mph /  6.1km/h 90% 0in /  0.0mm
05:59 40.3 °F /  4.6 °C 37.6 °F /  3.1 °C 29.9in /  1012.1hPa Calm   3.1mph /  5.0km/h 90% 0in /  0.0mm
06:04 40.3 °F /  4.6 °C 37.6 °F /  3.1 °C 29.9in /  1012.1hPa Calm   2.5mph /  4.0km/h 90% 0in /  0.0mm
06:09 40.3 °F /  4.6 °C 37.6 °F /  3.1 °C 29.9in /  1012.1hPa Calm     90% 0in /  0.0mm
06:14 40.3 °F /  4.6 °C 37.6 °F /  3.1 °C 29.9in /  1012.1hPa Calm     90% 0in /  0.0mm
06:19 40.3 °F /  4.6 °C 37.6 °F /  3.1 °C 29.9in /  1012.1hPa Calm     90% 0in /  0.0mm
06:24 40.1 °F /  4.5 °C 37.4 °F /  3.0 °C 29.9in /  1012.1hPa Calm     90% 0in /  0.0mm
06:29 40.1 °F /  4.5 °C 37.4 °F /  3.0 °C 29.9in /  1012.1hPa Calm     90% 0in /  0.0mm
06:34 39.9 °F /  4.4 °C 37.2 °F /  2.9 °C 29.9in /  1012.1hPa Calm     90% 0in /  0.0mm
06:39 39.7 °F /  4.3 °C 37 °F /  2.8 °C 29.9in /  1012.1hPa Calm     90% 0in /  0.0mm
06:44 39.7 °F /  4.3 °C 37 °F /  2.8 °C 29.9in /  1012.1hPa Calm     90% 0in /  0.0mm
06:49 39.6 °F /  4.2 °C 36.9 °F /  2.7 °C 29.9in /  1012.1hPa Calm     90% 0in /  0.0mm
06:54 39.6 °F /  4.2 °C 36.9 °F /  2.7 °C 29.9in /  1012.1hPa Calm     90% 0in /  0.0mm
06:59 39.7 °F /  4.3 °C 37 °F /  2.8 °C 29.9in /  1012.1hPa Calm     90% 0in /  0.0mm
07:04 39.7 °F /  4.3 °C 37.2 °F /  2.9 °C 29.9in /  1012.1hPa Calm     91% 0in /  0.0mm
07:09 39.6 °F /  4.2 °C 36.9 °F /  2.7 °C 29.9in /  1012.1hPa Calm     90% 0in /  0.0mm
07:14 39.2 °F /  4.0 °C 36.5 °F /  2.5 °C 29.9in /  1012.1hPa Calm   1.3mph /  2.1km/h 90% 0in /  0.0mm
07:19 39 °F /  3.9 °C 36.3 °F /  2.4 °C 29.9in /  1012.1hPa Calm   1.3mph /  2.1km/h 90% 0in /  0.0mm
07:24 38.7 °F /  3.7 °C 36 °F /  2.2 °C 29.9in /  1012.1hPa Calm     90% 0in /  0.0mm
07:29 38.5 °F /  3.6 °C 35.8 °F /  2.1 °C 29.9in /  1012.1hPa ENE 1.3mph /  2.1km/h 2mph /  3.2km/h 90% 0in /  0.0mm
07:34 38.7 °F /  3.7 °C 36.3 °F /  2.4 °C 29.9in /  1012.1hPa East 2.7mph /  4.3km/h 2.7mph /  4.3km/h 91% 0in /  0.0mm
07:39 39 °F /  3.9 °C 36.7 °F /  2.6 °C 29.9in /  1012.1hPa ENE 2.5mph /  4.0km/h 2.7mph /  4.3km/h 91% 0in /  0.0mm
07:44 39.2 °F /  4.0 °C 37 °F /  2.8 °C 29.9in /  1012.1hPa ENE 2.2mph /  3.5km/h 2.7mph /  4.3km/h 92% 0in /  0.0mm
07:49 39.4 °F /  4.1 °C 37.2 °F /  2.9 °C 29.9in /  1012.1hPa ENE 1.1mph /  1.8km/h 2.7mph /  4.3km/h 92% 0in /  0.0mm
07:54 39.7 °F /  4.3 °C 37.9 °F /  3.3 °C 29.9in /  1012.1hPa Calm   2.2mph /  3.5km/h 93% 0in /  0.0mm
07:59 40.3 °F /  4.6 °C 38.5 °F /  3.6 °C 29.9in /  1012.1hPa Calm   1.1mph /  1.8km/h 93% 0in /  0.0mm
08:04 41 °F /  5.0 °C 39.4 °F /  4.1 °C 29.9in /  1012.1hPa Calm   1.1mph /  1.8km/h 94% 0in /  0.0mm
08:09 42.1 °F /  5.6 °C 40.6 °F /  4.8 °C 29.9in /  1011.1hPa Calm   2mph /  3.2km/h 95% 0in /  0.0mm
08:14 43.2 °F /  6.2 °C 41.7 °F /  5.4 °C 29.9in /  1011.1hPa Calm   2mph /  3.2km/h 95% 0in /  0.0mm
08:19 44.1 °F /  6.7 °C 42.6 °F /  5.9 °C 29.9in /  1011.1hPa Calm   1.6mph /  2.6km/h 95% 0in /  0.0mm
08:24 45.1 °F /  7.3 °C 43.5 °F /  6.4 °C 29.9in /  1012.1hPa Calm   1.1mph /  1.8km/h 94% 0in /  0.0mm
08:29 46.2 °F /  7.9 °C 44.8 °F /  7.1 °C 29.9in /  1012.1hPa ESE 0.9mph /  1.4km/h 1.6mph /  2.6km/h 94% 0in /  0.0mm
08:34 47.1 °F /  8.4 °C 45.3 °F /  7.4 °C 29.9in /  1012.1hPa East 2.5mph /  4.0km/h 2.7mph /  4.3km/h 93% 0in /  0.0mm
08:39 48 °F /  8.9 °C 45.9 °F /  7.7 °C 29.9in /  1012.1hPa ESE 3.1mph /  5.0km/h 4.3mph /  6.9km/h 92% 0in /  0.0mm
08:44 48 °F /  8.9 °C 44.8 °F /  7.1 °C 29.9in /  1012.1hPa ESE 2.5mph /  4.0km/h 4.3mph /  6.9km/h 88% 0in /  0.0mm
08:49 47.7 °F /  8.7 °C 43.7 °F /  6.5 °C 29.9in /  1012.1hPa ESE 2.7mph /  4.3km/h 4mph /  6.4km/h 86% 0in /  0.0mm
08:54 48 °F /  8.9 °C 43.9 °F /  6.6 °C 29.9in /  1012.1hPa SE 2mph /  3.2km/h 3.8mph /  6.1km/h 85% 0in /  0.0mm
08:59 49.3 °F /  9.6 °C 45 °F /  7.2 °C 29.9in /  1012.1hPa SE 0.9mph /  1.4km/h 3.6mph /  5.8km/h 85% 0in /  0.0mm
09:04 49.8 °F /  9.9 °C 45.1 °F /  7.3 °C 29.9in /  1012.1hPa Calm   2.7mph /  4.3km/h 84% 0in /  0.0mm
09:10 49.8 °F /  9.9 °C 44.2 °F /  6.8 °C 29.9in /  1013.1hPa SSE 2.7mph /  4.3km/h 3.1mph /  5.0km/h 81% 0in /  0.0mm
09:15 50.2 °F /  10.1 °C 44.2 °F /  6.8 °C 29.9in /  1013.1hPa South 1.3mph /  2.1km/h 3.1mph /  5.0km/h 80% 0in /  0.0mm
09:20 50.9 °F /  10.5 °C 45.3 °F /  7.4 °C 29.9in /  1013.1hPa SSE 3.6mph /  5.8km/h 4mph /  6.4km/h 81% 0in /  0.0mm
09:25 51.8 °F /  11.0 °C 45.9 °F /  7.7 °C 29.9in /  1013.1hPa South 2.9mph /  4.7km/h 4.3mph /  6.9km/h 80% 0in /  0.0mm
09:30 52.9 °F /  11.6 °C 46 °F /  7.8 °C 29.9in /  1013.1hPa SSE 3.4mph /  5.5km/h 4.7mph /  7.6km/h 78% 0in /  0.0mm
09:35 53.2 °F /  11.8 °C 45.1 °F /  7.3 °C 29.9in /  1013.1hPa SSE 5.6mph /  9.0km/h 5.8mph /  9.3km/h 74% 0in /  0.0mm
09:40 53.2 °F /  11.8 °C 45 °F /  7.2 °C 29.9in /  1013.1hPa South 3.4mph /  5.5km/h 6.5mph /  10.5km/h 73% 0in /  0.0mm
09:45 54 °F /  12.2 °C 45.1 °F /  7.3 °C 29.9in /  1013.1hPa South 4mph /  6.4km/h 6.5mph /  10.5km/h 72% 0in /  0.0mm
09:50 54.3 °F /  12.4 °C 45.1 °F /  7.3 °C 29.9in /  1013.1hPa SSW 4.3mph /  6.9km/h 6.3mph /  10.1km/h 71% 0in /  0.0mm
09:55 54.3 °F /  12.4 °C 44.1 °F /  6.7 °C 29.9in /  1013.1hPa SSW 6mph /  9.7km/h 6.3mph /  10.1km/h 68% 0in /  0.0mm
10:00 54.1 °F /  12.3 °C 43.5 °F /  6.4 °C 29.9in /  1013.1hPa South 2.9mph /  4.7km/h 6.5mph /  10.5km/h 67% 0in /  0.0mm
10:05 54.7 °F /  12.6 °C 43.3 °F /  6.3 °C 29.9in /  1013.1hPa SSE 3.1mph /  5.0km/h 6.5mph /  10.5km/h 66% 0in /  0.0mm
10:10 55 °F /  12.8 °C 43.5 °F /  6.4 °C 29.9in /  1013.1hPa SSE 6.5mph /  10.5km/h 6.5mph /  10.5km/h 65% 0in /  0.0mm
10:15 54.9 °F /  12.7 °C 42.1 °F /  5.6 °C 29.9in /  1013.1hPa SSE 4mph /  6.4km/h 6.5mph /  10.5km/h 62% 0in /  0.0mm
10:20 54.9 °F /  12.7 °C 42.1 °F /  5.6 °C 29.9in /  1013.1hPa SSW 3.8mph /  6.1km/h 6.5mph /  10.5km/h 62% 0in /  0.0mm
10:25 55.2 °F /  12.9 °C 43 °F /  6.1 °C 29.9in /  1013.1hPa SSE 2.5mph /  4.0km/h 6.7mph /  10.8km/h 63% 0in /  0.0mm
10:30 55.8 °F /  13.2 °C 43 °F /  6.1 °C 29.9in /  1013.1hPa SSE 2.9mph /  4.7km/h 6.7mph /  10.8km/h 62% 0in /  0.0mm
10:35 55.9 °F /  13.3 °C 42.3 °F /  5.7 °C 29.9in /  1013.1hPa SSW 5.4mph /  8.7km/h 8.1mph /  13.0km/h 60% 0in /  0.0mm
10:40 56.3 °F /  13.5 °C 42.6 °F /  5.9 °C 29.9in /  1013.1hPa SSW 5.6mph /  9.0km/h 8.1mph /  13.0km/h 60% 0in /  0.0mm
10:45 56.8 °F /  13.8 °C 42.3 °F /  5.7 °C 29.9in /  1013.1hPa WSW 5.4mph /  8.7km/h 9.4mph /  15.1km/h 58% 0in /  0.0mm
10:50 57.2 °F /  14.0 °C 42.1 °F /  5.6 °C 29.9in /  1013.1hPa SSE 4.3mph /  6.9km/h 9.4mph /  15.1km/h 57% 0in /  0.0mm
10:55 57.4 °F /  14.1 °C 41.7 °F /  5.4 °C 29.9in /  1012.1hPa South 5.6mph /  9.0km/h 10.1mph /  16.3km/h 56% 0in /  0.0mm
11:00 57.4 °F /  14.1 °C 41.4 °F /  5.2 °C 29.9in /  1012.1hPa South 6mph /  9.7km/h 10.1mph /  16.3km/h 55% 0in /  0.0mm
11:05 57.4 °F /  14.1 °C 41.4 °F /  5.2 °C 29.9in /  1012.1hPa SSW 5.4mph /  8.7km/h 7.8mph /  12.6km/h 55% 0in /  0.0mm
11:10 57.6 °F /  14.2 °C 42.1 °F /  5.6 °C 29.9in /  1012.1hPa SSE 4mph /  6.4km/h 6.5mph /  10.5km/h 56% 0in /  0.0mm
11:15 57.9 °F /  14.4 °C 42.3 °F /  5.7 °C 29.9in /  1012.1hPa SSE 3.6mph /  5.8km/h 7.6mph /  12.2km/h 56% 0in /  0.0mm
11:20 58.3 °F /  14.6 °C 42.6 °F /  5.9 °C 29.9in /  1012.1hPa SE 2.7mph /  4.3km/h 7.6mph /  12.2km/h 56% 0in /  0.0mm
11:21 58.5 °F /  14.7 °C 42.8 °F /  6.0 °C 29.9in /  1012.1hPa South 3.4mph /  5.5km/h 6.3mph /  10.1km/h 56% 0in /  0.0mm
11:26 59 °F /  15.0 °C 42.4 °F /  5.8 °C 29.9in /  1012.1hPa SSE 3.8mph /  6.1km/h 8.1mph /  13.0km/h 54% 0in /  0.0mm
11:31 59.2 °F /  15.1 °C 42.4 °F /  5.8 °C 29.9in /  1012.1hPa SSE 7.6mph /  12.2km/h 8.1mph /  13.0km/h 54% 0in /  0.0mm
11:36 59.5 °F /  15.3 °C 42.4 °F /  5.8 °C 29.9in /  1012.1hPa South 2.9mph /  4.7km/h 7.8mph /  12.6km/h 53% 0in /  0.0mm
11:41 59.7 °F /  15.4 °C 42.4 °F /  5.8 °C 29.9in /  1012.1hPa South 3.1mph /  5.0km/h 7.8mph /  12.6km/h 53% 0in /  0.0mm
11:46 59.7 °F /  15.4 °C 42.4 °F /  5.8 °C 29.9in /  1012.1hPa SSW 3.8mph /  6.1km/h 6mph /  9.7km/h 53% 0in /  0.0mm
11:51 59.7 °F /  15.4 °C 41.5 °F /  5.3 °C 29.9in /  1012.1hPa South 3.6mph /  5.8km/h 6mph /  9.7km/h 51% 0in /  0.0mm
11:56 60.3 °F /  15.7 °C 42.1 °F /  5.6 °C 29.9in /  1013.1hPa SSW 3.6mph /  5.8km/h 6mph /  9.7km/h 51% 0in /  0.0mm
12:01 60.6 °F /  15.9 °C 41.7 °F /  5.4 °C 29.9in /  1013.1hPa South 4mph /  6.4km/h 5.6mph /  9.0km/h 50% 0in /  0.0mm
12:06 60.8 °F /  16.0 °C 42.1 °F /  5.6 °C 29.9in /  1013.1hPa SSW 3.4mph /  5.5km/h 5.6mph /  9.0km/h 50% 0in /  0.0mm
12:11 60.8 °F /  16.0 °C 42.1 °F /  5.6 °C 29.9in /  1012.1hPa SSW 2.9mph /  4.7km/h 5.4mph /  8.7km/h 50% 0in /  0.0mm
12:16 60.4 °F /  15.8 °C 41.7 °F /  5.4 °C 29.9in /  1012.1hPa SSE 5.4mph /  8.7km/h 5.8mph /  9.3km/h 50% 0in /  0.0mm
12:21 60.1 °F /  15.6 °C 41.9 °F /  5.5 °C 29.9in /  1012.1hPa SSW 3.1mph /  5.0km/h 5.8mph /  9.3km/h 51% 0in /  0.0mm
12:26 59.9 °F /  15.5 °C 41.7 °F /  5.4 °C 29.9in /  1012.1hPa WSW 2.5mph /  4.0km/h 5.4mph /  8.7km/h 51% 0in /  0.0mm
12:31 59.9 °F /  15.5 °C 41.2 °F /  5.1 °C 29.9in /  1012.1hPa SE 0.9mph /  1.4km/h 4.7mph /  7.6km/h 50% 0in /  0.0mm
12:37 59.9 °F /  15.5 °C 41.7 °F /  5.4 °C 29.9in /  1012.1hPa South 3.6mph /  5.8km/h 4.5mph /  7.2km/h 51% 0in /  0.0mm
12:42 59.7 °F /  15.4 °C 41 °F /  5.0 °C 29.9in /  1013.1hPa SSW 3.6mph /  5.8km/h 4.3mph /  6.9km/h 50% 0in /  0.0mm
12:47 59.7 °F /  15.4 °C 41.5 °F /  5.3 °C 29.9in /  1013.1hPa SSW 3.6mph /  5.8km/h 4.5mph /  7.2km/h 51% 0in /  0.0mm
12:52 59.9 °F /  15.5 °C 41.7 °F /  5.4 °C 29.9in /  1013.1hPa Calm   4.5mph /  7.2km/h 51% 0in /  0.0mm
12:57 60.3 °F /  15.7 °C 41.5 °F /  5.3 °C 29.9in /  1013.1hPa South 2mph /  3.2km/h 4mph /  6.4km/h 50% 0in /  0.0mm
13:02 61 °F /  16.1 °C 42.3 °F /  5.7 °C 29.9in /  1013.1hPa South 2.9mph /  4.7km/h 6mph /  9.7km/h 50% 0in /  0.0mm
13:07 61.5 °F /  16.4 °C 42.6 °F /  5.9 °C 29.9in /  1013.1hPa SSE 2.9mph /  4.7km/h 6mph /  9.7km/h 50% 0in /  0.0mm
13:12 62.2 °F /  16.8 °C 42.8 °F /  6.0 °C 29.9in /  1013.1hPa SSE 1.1mph /  1.8km/h 5.8mph /  9.3km/h 49% 0in /  0.0mm
13:17 63 °F /  17.2 °C 43 °F /  6.1 °C 29.9in /  1013.1hPa SW 3.8mph /  6.1km/h 5.8mph /  9.3km/h 48% 0in /  0.0mm
13:22 63 °F /  17.2 °C 43 °F /  6.1 °C 29.9in /  1013.1hPa WSW 4.3mph /  6.9km/h 4.3mph /  6.9km/h 48% 0in /  0.0mm
13:27 63 °F /  17.2 °C 43 °F /  6.1 °C 29.9in /  1012.1hPa South 3.1mph /  5.0km/h 4.7mph /  7.6km/h 48% 0in /  0.0mm
13:32 63 °F /  17.2 °C 42.3 °F /  5.7 °C 29.9in /  1012.1hPa SSW 1.3mph /  2.1km/h 7.2mph /  11.6km/h 47% 0in /  0.0mm
13:37 62.4 °F /  16.9 °C 42.4 °F /  5.8 °C 29.9in /  1012.1hPa West 3.1mph /  5.0km/h 7.2mph /  11.6km/h 48% 0in /  0.0mm
13:42 62.1 °F /  16.7 °C 42.1 °F /  5.6 °C 29.9in /  1012.1hPa SSE 2.9mph /  4.7km/h 5.4mph /  8.7km/h 48% 0in /  0.0mm
13:47 62.2 °F /  16.8 °C 42.4 °F /  5.8 °C 29.9in /  1012.1hPa South 2.5mph /  4.0km/h 4mph /  6.4km/h 48% 0in /  0.0mm
13:52 61.9 °F /  16.6 °C 41.9 °F /  5.5 °C 29.9in /  1012.1hPa WSW 3.8mph /  6.1km/h 4mph /  6.4km/h 48% 0in /  0.0mm
13:57 61.5 °F /  16.4 °C 41.7 °F /  5.4 °C 29.9in /  1012.1hPa West 3.4mph /  5.5km/h 3.8mph /  6.1km/h 48% 0in /  0.0mm
14:02 61.5 °F /  16.4 °C 41.5 °F /  5.3 °C 29.9in /  1012.1hPa West 0.9mph /  1.4km/h 4.3mph /  6.9km/h 48% 0in /  0.0mm
14:07 61.5 °F /  16.4 °C 41.7 °F /  5.4 °C 29.9in /  1012.1hPa Calm   4.3mph /  6.9km/h 48% 0in /  0.0mm
14:12 62.2 °F /  16.8 °C 42.3 °F /  5.7 °C 29.9in /  1012.1hPa SW 2.5mph /  4.0km/h 3.6mph /  5.8km/h 48% 0in /  0.0mm
14:17 62.8 °F /  17.1 °C 42.6 °F /  5.9 °C 29.9in /  1012.1hPa West 2.7mph /  4.3km/h 3.1mph /  5.0km/h 48% 0in /  0.0mm
14:22 62.8 °F /  17.1 °C 42.3 °F /  5.7 °C 29.9in /  1012.1hPa WSW 2.7mph /  4.3km/h 2.9mph /  4.7km/h 47% 0in /  0.0mm
14:27 62.8 °F /  17.1 °C 42.6 °F /  5.9 °C 29.9in /  1012.1hPa Calm   3.8mph /  6.1km/h 48% 0in /  0.0mm
14:33 62.1 °F /  16.7 °C 41.5 °F /  5.3 °C 29.9in /  1012.1hPa West 1.3mph /  2.1km/h 4.3mph /  6.9km/h 47% 0in /  0.0mm
14:38 61.9 °F /  16.6 °C 41.4 °F /  5.2 °C 29.9in /  1012.1hPa WNW 2.2mph /  3.5km/h 4.3mph /  6.9km/h 47% 0in /  0.0mm
14:43 61.5 °F /  16.4 °C 41.7 °F /  5.4 °C 29.9in /  1012.1hPa Calm   3.1mph /  5.0km/h 48% 0in /  0.0mm
14:48 61.5 °F /  16.4 °C 41 °F /  5.0 °C 29.9in /  1012.1hPa West 1.3mph /  2.1km/h 4.9mph /  7.9km/h 47% 0in /  0.0mm
14:53 61.5 °F /  16.4 °C 41.5 °F /  5.3 °C 29.9in /  1012.1hPa Calm   4.9mph /  7.9km/h 48% 0in /  0.0mm
14:58 61.5 °F /  16.4 °C 41.5 °F /  5.3 °C 29.9in /  1012.1hPa Calm   2.9mph /  4.7km/h 48% 0in /  0.0mm
15:03 61.3 °F /  16.3 °C 40.8 °F /  4.9 °C 29.9in /  1012.1hPa Calm   2.5mph /  4.0km/h 47% 0in /  0.0mm
15:08 61.5 °F /  16.4 °C 41.5 °F /  5.3 °C 29.9in /  1012.1hPa Calm   2.9mph /  4.7km/h 48% 0in /  0.0mm
15:13 61.5 °F /  16.4 °C 41.5 °F /  5.3 °C 29.9in /  1012.1hPa Calm   3.4mph /  5.5km/h 48% 0in /  0.0mm
15:18 61.5 °F /  16.4 °C 41.7 °F /  5.4 °C 29.9in /  1012.1hPa WSW 2.2mph /  3.5km/h 3.4mph /  5.5km/h 48% 0in /  0.0mm
15:23 62.1 °F /  16.7 °C 42.6 °F /  5.9 °C 29.9in /  1012.1hPa WNW 2.5mph /  4.0km/h 3.1mph /  5.0km/h 49% 0in /  0.0mm
15:28 62.1 °F /  16.7 °C 42.1 °F /  5.6 °C 29.9in /  1012.1hPa Calm   3.1mph /  5.0km/h 48% 0in /  0.0mm
15:33 62.1 °F /  16.7 °C 42.6 °F /  5.9 °C 29.9in /  1012.1hPa Calm   2.5mph /  4.0km/h 49% 0in /  0.0mm
15:38 62.1 °F /  16.7 °C 42.1 °F /  5.6 °C 29.9in /  1012.1hPa Calm   2.5mph /  4.0km/h 48% 0in /  0.0mm
15:43 62.1 °F /  16.7 °C 42.6 °F /  5.9 °C 29.9in /  1012.1hPa WNW 0.9mph /  1.4km/h 2.5mph /  4.0km/h 49% 0in /  0.0mm
15:48 61.3 °F /  16.3 °C 42.1 °F /  5.6 °C 29.9in /  1012.1hPa Calm   3.6mph /  5.8km/h 49% 0in /  0.0mm
15:53 61.2 °F /  16.2 °C 41.7 °F /  5.4 °C 29.9in /  1012.1hPa Calm   3.6mph /  5.8km/h 49% 0in /  0.0mm
15:58 61.2 °F /  16.2 °C 41.7 °F /  5.4 °C 29.9in /  1012.1hPa Calm   2.7mph /  4.3km/h 49% 0in /  0.0mm
16:06 60.8 °F /  16.0 °C 41.5 °F /  5.3 °C 29.9in /  1012.1hPa North 3.8mph /  6.1km/h 3.8mph /  6.1km/h 49% 0in /  0.0mm
18:32 55.6 °F /  13.1 °C 42.6 °F /  5.9 °C 29.9in /  1013.1hPa North 1.3mph /  2.1km/h 4.3mph /  6.9km/h 62% 0in /  0.0mm
18:37 55 °F /  12.8 °C 43.2 °F /  6.2 °C 29.9in /  1013.1hPa North 2.2mph /  3.5km/h 4.3mph /  6.9km/h 64% 0in /  0.0mm
18:42 54.9 °F /  12.7 °C 43 °F /  6.1 °C 29.9in /  1013.1hPa WNW 3.6mph /  5.8km/h 5.4mph /  8.7km/h 64% 0in /  0.0mm
18:47 54.9 °F /  12.7 °C 43.2 °F /  6.2 °C 29.9in /  1013.1hPa North 2mph /  3.2km/h 5.4mph /  8.7km/h 65% 0in /  0.0mm
18:52 54.3 °F /  12.4 °C 43.3 °F /  6.3 °C 29.9in /  1014.1hPa NNW 3.1mph /  5.0km/h 4.9mph /  7.9km/h 66% 0in /  0.0mm
18:57 54 °F /  12.2 °C 43.7 °F /  6.5 °C 29.9in /  1014.1hPa NW 2.9mph /  4.7km/h 6mph /  9.7km/h 68% 0in /  0.0mm
19:02 53.8 °F /  12.1 °C 43.9 °F /  6.6 °C 29.9in /  1014.1hPa NNW 2.9mph /  4.7km/h 6mph /  9.7km/h 69% 0in /  0.0mm
19:07 53.4 °F /  11.9 °C 44.1 °F /  6.7 °C 29.9in /  1014.1hPa North 4mph /  6.4km/h 5.8mph /  9.3km/h 70% 0in /  0.0mm
19:12 53.2 °F /  11.8 °C 43.5 °F /  6.4 °C 29.9in /  1014.1hPa NNW 3.1mph /  5.0km/h 5.8mph /  9.3km/h 70% 0in /  0.0mm
19:17 52.9 °F /  11.6 °C 43.3 °F /  6.3 °C 29.9in /  1014.1hPa NW 2mph /  3.2km/h 4.3mph /  6.9km/h 70% 0in /  0.0mm
19:22 52.5 °F /  11.4 °C 43.2 °F /  6.2 °C 30in /  1015.1hPa North 1.1mph /  1.8km/h 3.8mph /  6.1km/h 70% 0in /  0.0mm
19:27 52.3 °F /  11.3 °C 43.2 °F /  6.2 °C 30in /  1015.1hPa Calm   4.3mph /  6.9km/h 71% 0in /  0.0mm
19:32 52 °F /  11.1 °C 42.8 °F /  6.0 °C 30in /  1015.1hPa NNW 2.9mph /  4.7km/h 4.3mph /  6.9km/h 71% 0in /  0.0mm
19:37 51.6 °F /  10.9 °C 42.4 °F /  5.8 °C 30in /  1015.1hPa Calm   3.6mph /  5.8km/h 71% 0in /  0.0mm
19:42 51.3 °F /  10.7 °C 42.4 °F /  5.8 °C 30in /  1015.1hPa WNW 1.3mph /  2.1km/h 3.1mph /  5.0km/h 72% 0in /  0.0mm
19:47 51.1 °F /  10.6 °C 42.3 °F /  5.7 °C 30in /  1015.1hPa Calm   3.1mph /  5.0km/h 72% 0in /  0.0mm
19:52 50.7 °F /  10.4 °C 42.4 °F /  5.8 °C 30in /  1015.1hPa NNW 0.9mph /  1.4km/h 2.5mph /  4.0km/h 73% 0in /  0.0mm
19:57 50.4 °F /  10.2 °C 42.1 °F /  5.6 °C 30in /  1015.1hPa Calm   2.5mph /  4.0km/h 73% 0in /  0.0mm
20:02 50 °F /  10.0 °C 41.7 °F /  5.4 °C 30in /  1015.1hPa Calm   2.5mph /  4.0km/h 73% 0in /  0.0mm
20:07 49.6 °F /  9.8 °C 41.7 °F /  5.4 °C 30in /  1015.1hPa Calm   2.2mph /  3.5km/h 74% 0in /  0.0mm
20:12 49.5 °F /  9.7 °C 41.5 °F /  5.3 °C 30in /  1015.1hPa NW 0.9mph /  1.4km/h 2.2mph /  3.5km/h 74% 0in /  0.0mm
20:17 49.1 °F /  9.5 °C 41.5 °F /  5.3 °C 30in /  1015.1hPa Calm   2mph /  3.2km/h 75% 0in /  0.0mm
20:22 48.7 °F /  9.3 °C 41.2 °F /  5.1 °C 30in /  1015.1hPa Calm   2mph /  3.2km/h 75% 0in /  0.0mm
20:27 48.6 °F /  9.2 °C 41 °F /  5.0 °C 30in /  1015.1hPa WNW 2.2mph /  3.5km/h 2.2mph /  3.5km/h 75% 0in /  0.0mm
20:32 48.4 °F /  9.1 °C 41.2 °F /  5.1 °C 30in /  1015.1hPa NNW 2.5mph /  4.0km/h 2.5mph /  4.0km/h 76% 0in /  0.0mm
20:37 48.2 °F /  9.0 °C 41 °F /  5.0 °C 30in /  1015.1hPa North 2mph /  3.2km/h 3.4mph /  5.5km/h 76% 0in /  0.0mm
20:42 48 °F /  8.9 °C 41.2 °F /  5.1 °C 30in /  1015.1hPa WNW 2mph /  3.2km/h 3.4mph /  5.5km/h 77% 0in /  0.0mm
20:47 47.8 °F /  8.8 °C 41 °F /  5.0 °C 30in /  1015.1hPa North 2mph /  3.2km/h 3.4mph /  5.5km/h 77% 0in /  0.0mm
20:52 47.7 °F /  8.7 °C 41.5 °F /  5.3 °C 30in /  1016.1hPa NW 3.4mph /  5.5km/h 3.6mph /  5.8km/h 79% 0in /  0.0mm
20:57 47.5 °F /  8.6 °C 41.4 °F /  5.2 °C 30in /  1016.1hPa NW 1.3mph /  2.1km/h 5.6mph /  9.0km/h 79% 0in /  0.0mm
21:02 47.3 °F /  8.5 °C 41.2 °F /  5.1 °C 30in /  1016.1hPa Calm   5.6mph /  9.0km/h 79% 0in /  0.0mm
21:07 47.1 °F /  8.4 °C 41.4 °F /  5.2 °C 30in /  1016.1hPa NE 4mph /  6.4km/h 5.4mph /  8.7km/h 80% 0in /  0.0mm
21:12 46.9 °F /  8.3 °C 41.2 °F /  5.1 °C 30in /  1016.1hPa Calm   5.4mph /  8.7km/h 80% 0in /  0.0mm
21:17 46.8 °F /  8.2 °C 41.4 °F /  5.2 °C 30in /  1016.1hPa WNW 1.1mph /  1.8km/h 4.3mph /  6.9km/h 81% 0in /  0.0mm
21:22 46.6 °F /  8.1 °C 41.2 °F /  5.1 °C 30in /  1016.8hPa North 1.6mph /  2.6km/h 4mph /  6.4km/h 81% 0in /  0.0mm
21:27 46.6 °F /  8.1 °C 41.4 °F /  5.2 °C 30in /  1016.8hPa WNW 3.4mph /  5.5km/h 4.3mph /  6.9km/h 82% 0in /  0.0mm
21:32 46.2 °F /  7.9 °C 41.2 °F /  5.1 °C 30in /  1016.8hPa North 2.7mph /  4.3km/h 4.7mph /  7.6km/h 82% 0in /  0.0mm
21:37 46.2 °F /  7.9 °C 41.2 °F /  5.1 °C 30in /  1016.8hPa NNE 5.4mph /  8.7km/h 5.4mph /  8.7km/h 82% 0in /  0.0mm
21:42 46 °F /  7.8 °C 40.8 °F /  4.9 °C 30in /  1016.8hPa NNW 4.7mph /  7.6km/h 5.4mph /  8.7km/h 82% 0in /  0.0mm
21:47 45.9 °F /  7.7 °C 41.2 °F /  5.1 °C 30in /  1016.8hPa WNW 2mph /  3.2km/h 5.4mph /  8.7km/h 83% 0in /  0.0mm
21:52 45.9 °F /  7.7 °C 40.8 °F /  4.9 °C 30in /  1016.8hPa West 1.3mph /  2.1km/h 4.7mph /  7.6km/h 83% 0in /  0.0mm
21:57 45.7 °F /  7.6 °C 40.5 °F /  4.7 °C 30in /  1016.8hPa WNW 2.5mph /  4.0km/h 3.6mph /  5.8km/h 82% 0in /  0.0mm
22:02 45.1 °F /  7.3 °C 40.1 °F /  4.5 °C 30in /  1016.8hPa Calm   4mph /  6.4km/h 82% 0in /  0.0mm
22:07 45.1 °F /  7.3 °C 39.9 °F /  4.4 °C 30in /  1016.8hPa Calm   4mph /  6.4km/h 82% 0in /  0.0mm
22:12 45 °F /  7.2 °C 39.9 °F /  4.4 °C 30in /  1016.8hPa North 1.6mph /  2.6km/h 2.5mph /  4.0km/h 83% 0in /  0.0mm
22:17 45 °F /  7.2 °C 40.3 °F /  4.6 °C 30in /  1016.8hPa Calm   2.2mph /  3.5km/h 84% 0in /  0.0mm
22:22 44.8 °F /  7.1 °C 39.9 °F /  4.4 °C 30in /  1016.8hPa North 0.9mph /  1.4km/h 3.1mph /  5.0km/h 83% 0in /  0.0mm
22:27 44.2 °F /  6.8 °C 39.6 °F /  4.2 °C 30in /  1016.8hPa NNE 0.9mph /  1.4km/h 3.1mph /  5.0km/h 83% 0in /  0.0mm
22:32 44.2 °F /  6.8 °C 39.6 °F /  4.2 °C 30in /  1016.8hPa NW 3.1mph /  5.0km/h 4.7mph /  7.6km/h 84% 0in /  0.0mm
22:37 44.2 °F /  6.8 °C 39.7 °F /  4.3 °C 30in /  1016.8hPa NW 2.5mph /  4.0km/h 6.5mph /  10.5km/h 84% 0in /  0.0mm
22:43 44.2 °F /  6.8 °C 40.1 °F /  4.5 °C 30in /  1016.8hPa NNW 4.3mph /  6.9km/h 6.5mph /  10.5km/h 85% 0in /  0.0mm
22:48 44.2 °F /  6.8 °C 40.1 °F /  4.5 °C 30in /  1016.8hPa NW 4.3mph /  6.9km/h 5.8mph /  9.3km/h 85% 0in /  0.0mm
22:53 44.2 °F /  6.8 °C 39.9 °F /  4.4 °C 30in /  1016.8hPa WNW 1.1mph /  1.8km/h 5.6mph /  9.0km/h 85% 0in /  0.0mm
22:58 44.1 °F /  6.7 °C 39.7 °F /  4.3 °C 30in /  1016.8hPa WNW 1.1mph /  1.8km/h 3.6mph /  5.8km/h 85% 0in /  0.0mm
23:03 43.9 °F /  6.6 °C 39.6 °F /  4.2 °C 30in /  1016.8hPa Calm   3.4mph /  5.5km/h 85% 0in /  0.0mm
23:08 43.3 °F /  6.3 °C 38.8 °F /  3.8 °C 30in /  1016.8hPa Calm   3.1mph /  5.0km/h 84% 0in /  0.0mm
23:13 43 °F /  6.1 °C 38.5 °F /  3.6 °C 30in /  1016.8hPa NE 2.2mph /  3.5km/h 3.1mph /  5.0km/h 84% 0in /  0.0mm
23:18 42.6 °F /  5.9 °C 38.1 °F /  3.4 °C 30in /  1016.8hPa ENE 0.9mph /  1.4km/h 2.9mph /  4.7km/h 84% 0in /  0.0mm
23:23 42.3 °F /  5.7 °C 37.9 °F /  3.3 °C 30in /  1016.8hPa Calm   2.9mph /  4.7km/h 85% 0in /  0.0mm
23:28 41.9 °F /  5.5 °C 37.8 °F /  3.2 °C 30in /  1016.8hPa Calm   1.6mph /  2.6km/h 85% 0in /  0.0mm
23:33 41.7 °F /  5.4 °C 37.6 °F /  3.1 °C 30in /  1016.8hPa Calm   1.6mph /  2.6km/h 85% 0in /  0.0mm
23:38 41.5 °F /  5.3 °C 37.6 °F /  3.1 °C 30in /  1016.8hPa Calm   2.9mph /  4.7km/h 86% 0in /  0.0mm
23:43 42.1 °F /  5.6 °C 38.5 °F /  3.6 °C 30in /  1016.8hPa NNE 2.9mph /  4.7km/h 3.4mph /  5.5km/h 87% 0in /  0.0mm
23:48 42.3 °F /  5.7 °C 38.8 °F /  3.8 °C 30in /  1016.8hPa NNW 3.1mph /  5.0km/h 4.7mph /  7.6km/h 88% 0in /  0.0mm
23:53 42.4 °F /  5.8 °C 39 °F /  3.9 °C 30in /  1016.8hPa Calm   4.7mph /  7.6km/h 88% 0in /  0.0mm
23:58 42.3 °F /  5.7 °C 38.8 °F /  3.8 °C 30in /  1016.8hPa Calm   3.6mph /  5.8km/h 88% 0in /  0.0mm
23:59 42.3 °F /  5.7 °C 38.8 °F /  3.8 °C 30in /  1016.8hPa Calm   3.6mph /  5.8km/h 88% 0in /  0.0mm
Données Historique de Météo Turbie

Mise a jour : 22/05/2018 04:04:12
Généré par Cumulus 1.9.4 (1099)